createdAt,value
2023-04-07T00:00:20.736Z,30.95
2023-04-07T00:00:53.119Z,29.10
2023-04-07T00:01:25.843Z,27.48
2023-04-07T00:01:58.135Z,32.83
2023-04-07T00:02:30.907Z,30.42
2023-04-07T00:03:07.550Z,30.77
2023-04-07T00:03:41.723Z,29.80
2023-04-07T00:04:14.205Z,27.50
2023-04-07T00:04:46.589Z,28.33
2023-04-07T00:05:19.157Z,31.35
2023-04-07T00:05:51.924Z,23.95
2023-04-07T00:06:24.323Z,24.15
2023-04-07T00:06:56.796Z,28.38
2023-04-07T00:07:29.267Z,27.10
2023-04-07T00:08:01.757Z,30.88
2023-04-07T00:08:34.274Z,27.97
2023-04-07T00:09:06.732Z,29.33
2023-04-07T00:09:39.015Z,30.73
2023-04-07T00:10:11.855Z,27.20
2023-04-07T00:10:44.096Z,28.48
2023-04-07T00:11:16.444Z,30.25
2023-04-07T00:11:48.984Z,29.95
2023-04-07T00:12:21.580Z,30.00
2023-04-07T00:12:53.946Z,34.47
2023-04-07T00:13:26.849Z,28.63
2023-04-07T00:13:59.377Z,32.03
2023-04-07T00:14:31.703Z,31.98
2023-04-07T00:15:04.395Z,30.38
2023-04-07T00:15:36.671Z,34.00
2023-04-07T00:16:09.153Z,26.80
2023-04-07T00:16:41.495Z,28.20
2023-04-07T00:17:14.062Z,29.58
2023-04-07T00:17:46.393Z,26.15
2023-04-07T00:18:18.669Z,31.63
2023-04-07T00:18:50.978Z,33.55
2023-04-07T00:19:23.279Z,27.43
2023-04-07T00:19:55.599Z,31.30
2023-04-07T00:20:27.951Z,31.48
2023-04-07T00:21:00.394Z,34.75
2023-04-07T00:21:32.765Z,29.38
2023-04-07T00:22:05.126Z,36.10
2023-04-07T00:22:37.881Z,33.17
2023-04-07T00:23:10.176Z,32.92
2023-04-07T00:23:43.440Z,32.63
2023-04-07T00:24:18.504Z,32.72
2023-04-07T00:24:56.627Z,30.93
2023-04-07T00:25:28.962Z,36.45
2023-04-07T00:26:01.705Z,31.92
2023-04-07T00:26:34.107Z,34.80
2023-04-07T00:27:07.024Z,34.22
2023-04-07T00:27:39.371Z,32.08
2023-04-07T00:28:11.737Z,31.65
2023-04-07T00:28:44.117Z,35.58
2023-04-07T00:29:16.438Z,36.90
2023-04-07T00:29:48.895Z,32.92
2023-04-07T00:30:21.261Z,32.53
2023-04-07T00:30:53.708Z,32.55
2023-04-07T00:31:26.258Z,36.10
2023-04-07T00:31:58.717Z,34.47
2023-04-07T00:32:31.621Z,37.67
2023-04-07T00:33:05.725Z,35.65
2023-04-07T00:33:42.185Z,36.17
2023-04-07T00:34:14.501Z,32.00
2023-04-07T00:34:47.217Z,35.13
2023-04-07T00:35:19.524Z,37.13
2023-04-07T00:35:54.635Z,33.90
2023-04-07T00:36:27.285Z,34.38
2023-04-07T00:36:59.582Z,33.13
2023-04-07T00:37:31.983Z,31.65
2023-04-07T00:38:04.384Z,37.75
2023-04-07T00:38:37.020Z,41.85
2023-04-07T00:39:09.311Z,41.10
2023-04-07T00:39:41.744Z,39.72
2023-04-07T00:40:14.162Z,37.78
2023-04-07T00:40:46.485Z,37.80
2023-04-07T00:41:19.348Z,39.53
2023-04-07T00:41:52.038Z,40.88
2023-04-07T00:42:24.681Z,32.28
2023-04-07T00:42:57.322Z,36.50
2023-04-07T00:43:29.636Z,35.47
2023-04-07T00:44:02.256Z,29.70
2023-04-07T00:44:34.585Z,35.13
2023-04-07T00:45:07.251Z,34.53
2023-04-07T00:45:39.609Z,35.35
2023-04-07T00:46:12.164Z,30.88
2023-04-07T00:46:46.114Z,36.10
2023-04-07T00:47:18.457Z,37.72
2023-04-07T00:47:51.042Z,37.47
2023-04-07T00:48:23.462Z,36.08
2023-04-07T00:48:55.845Z,35.10
2023-04-07T00:49:28.771Z,35.90
2023-04-07T00:50:01.259Z,36.10
2023-04-07T00:50:33.654Z,34.83
2023-04-07T00:51:07.036Z,37.45
2023-04-07T00:51:39.404Z,35.00
2023-04-07T00:52:12.230Z,34.47
2023-04-07T00:52:45.202Z,33.22
2023-04-07T00:53:17.689Z,31.80
2023-04-07T00:53:51.166Z,29.75
2023-04-07T00:54:24.129Z,36.63
2023-04-07T00:54:56.563Z,32.92
2023-04-07T00:55:28.971Z,38.03
2023-04-07T00:56:01.232Z,41.42
2023-04-07T00:56:34.027Z,33.35
2023-04-07T00:57:07.072Z,31.67
2023-04-07T00:57:39.450Z,33.90
2023-04-07T00:58:12.141Z,34.80
2023-04-07T00:58:45.858Z,29.00
2023-04-07T00:59:18.937Z,28.80
2023-04-07T00:59:51.771Z,29.15
2023-04-07T01:00:24.310Z,32.55
2023-04-07T01:01:20.290Z,35.55
2023-04-07T01:01:53.688Z,31.73
2023-04-07T01:02:27.550Z,35.28
2023-04-07T01:03:10.814Z,36.50
2023-04-07T01:04:00.049Z,33.10
2023-04-07T01:04:35.070Z,28.35
2023-04-07T01:05:16.691Z,32.63
2023-04-07T01:05:56.664Z,33.60
2023-04-07T01:06:31.718Z,31.92
2023-04-07T01:07:09.977Z,28.70
2023-04-07T01:07:58.900Z,37.15
2023-04-07T01:08:35.864Z,30.42
2023-04-07T01:09:39.072Z,28.65
2023-04-07T01:10:14.140Z,28.40
2023-04-07T01:10:57.513Z,33.57
2023-04-07T01:11:44.692Z,28.90
2023-04-07T01:12:29.048Z,28.65
2023-04-07T01:13:22.748Z,29.42
2023-04-07T01:13:57.807Z,32.17
2023-04-07T01:14:46.122Z,27.88
2023-04-07T01:15:34.201Z,28.35
2023-04-07T01:16:11.526Z,34.17
2023-04-07T01:16:55.070Z,32.20
2023-04-07T01:17:29.001Z,31.92
2023-04-07T01:18:07.497Z,31.07
2023-04-07T01:18:40.573Z,32.22
2023-04-07T01:19:30.964Z,29.33
2023-04-07T01:20:08.670Z,28.90
2023-04-07T01:20:44.020Z,30.33
2023-04-07T01:21:18.407Z,26.58
2023-04-07T01:21:52.636Z,31.70
2023-04-07T01:22:30.044Z,27.65
2023-04-07T01:23:05.952Z,30.92
2023-04-07T01:23:57.296Z,24.77
2023-04-07T01:24:52.612Z,28.33
2023-04-07T01:25:29.165Z,31.10
2023-04-07T01:26:15.681Z,30.88
2023-04-07T01:26:49.559Z,25.65
2023-04-07T01:27:25.823Z,31.17
2023-04-07T01:28:10.083Z,30.00
2023-04-07T01:28:49.701Z,28.48
2023-04-07T01:29:24.677Z,25.40
2023-04-07T01:29:57.186Z,30.17
2023-04-07T01:30:31.166Z,32.03
2023-04-07T01:31:03.847Z,33.77
2023-04-07T01:31:37.551Z,28.55
2023-04-07T01:32:11.028Z,26.67
2023-04-07T01:32:45.942Z,26.08
2023-04-07T01:33:19.210Z,30.95
2023-04-07T01:33:52.336Z,25.48
2023-04-07T01:34:26.264Z,29.88
2023-04-07T01:35:00.117Z,29.13
2023-04-07T01:35:33.583Z,31.33
2023-04-07T01:36:06.994Z,34.58
2023-04-07T01:36:42.499Z,28.27
2023-04-07T01:37:16.581Z,30.17
2023-04-07T01:37:50.728Z,27.55
2023-04-07T01:38:23.833Z,30.13
2023-04-07T01:38:56.545Z,27.30
2023-04-07T01:39:29.106Z,31.55
2023-04-07T01:40:02.051Z,28.60
2023-04-07T01:40:35.442Z,29.73
2023-04-07T01:41:08.670Z,32.28
2023-04-07T01:41:41.855Z,29.77
2023-04-07T01:42:14.616Z,30.83
2023-04-07T01:42:47.800Z,28.98
2023-04-07T01:43:20.584Z,26.70
2023-04-07T01:43:53.703Z,26.10
2023-04-07T01:44:26.860Z,30.20
2023-04-07T01:44:59.693Z,28.25
2023-04-07T01:45:34.765Z,26.63
2023-04-07T01:46:07.513Z,28.73
2023-04-07T01:46:40.176Z,30.00
2023-04-07T01:47:12.868Z,28.63
2023-04-07T01:47:46.242Z,32.03
2023-04-07T01:48:18.691Z,28.42
2023-04-07T01:48:51.738Z,27.15
2023-04-07T01:49:25.395Z,28.25
2023-04-07T01:49:59.060Z,26.08
2023-04-07T01:50:31.611Z,24.23
2023-04-07T01:51:05.233Z,24.63
2023-04-07T01:51:37.693Z,26.00
2023-04-07T01:52:10.881Z,23.33
2023-04-07T01:52:43.277Z,29.17
2023-04-07T01:53:15.836Z,28.03
2023-04-07T01:53:48.928Z,27.30
2023-04-07T01:54:21.646Z,26.63
2023-04-07T01:54:54.949Z,29.30
2023-04-07T01:55:27.829Z,22.95
2023-04-07T01:56:12.188Z,24.35
2023-04-07T01:56:45.497Z,27.20
2023-04-07T01:57:18.083Z,28.80
2023-04-07T01:57:53.425Z,25.48
2023-04-07T01:58:26.225Z,26.75
2023-04-07T01:58:59.150Z,23.73
2023-04-07T01:59:31.441Z,28.27
2023-04-07T02:00:06.969Z,26.25
2023-04-07T02:00:47.646Z,27.70
2023-04-07T02:01:23.951Z,26.95
2023-04-07T02:01:56.993Z,28.60
2023-04-07T02:02:29.491Z,28.92
2023-04-07T02:03:07.842Z,30.25
2023-04-07T02:03:49.361Z,28.25
2023-04-07T02:04:25.861Z,27.00
2023-04-07T02:05:05.596Z,24.23
2023-04-07T02:05:39.151Z,27.92
2023-04-07T02:06:13.545Z,28.45
2023-04-07T02:06:59.568Z,30.88
2023-04-07T02:07:46.078Z,29.17
2023-04-07T02:08:20.250Z,26.50
2023-04-07T02:08:54.900Z,23.48
2023-04-07T02:09:30.273Z,22.98
2023-04-07T02:10:03.559Z,27.33
2023-04-07T02:10:37.275Z,30.48
2023-04-07T02:11:11.196Z,26.73
2023-04-07T02:11:45.509Z,27.42
2023-04-07T02:12:17.990Z,29.02
2023-04-07T02:13:04.225Z,26.05
2023-04-07T02:13:37.710Z,28.25
2023-04-07T02:14:10.385Z,27.23
2023-04-07T02:15:01.556Z,25.30
2023-04-07T02:15:37.006Z,26.55
2023-04-07T02:16:10.071Z,27.65
2023-04-07T02:16:43.168Z,27.45
2023-04-07T02:17:16.054Z,29.10
2023-04-07T02:17:50.337Z,30.27
2023-04-07T02:18:23.661Z,27.50
2023-04-07T02:18:56.683Z,26.73
2023-04-07T02:19:30.623Z,27.58
2023-04-07T02:20:04.111Z,29.23
2023-04-07T02:20:37.485Z,27.80
2023-04-07T02:21:11.880Z,30.00
2023-04-07T02:21:44.525Z,25.77
2023-04-07T02:22:17.467Z,29.98
2023-04-07T02:22:50.028Z,27.37
2023-04-07T02:23:23.325Z,30.15
2023-04-07T02:23:56.256Z,28.02
2023-04-07T02:24:29.692Z,30.60
2023-04-07T02:25:02.047Z,28.02
2023-04-07T02:25:34.414Z,29.80
2023-04-07T02:26:06.835Z,28.73
2023-04-07T02:26:39.125Z,31.58
2023-04-07T02:27:11.571Z,31.10
2023-04-07T02:27:43.936Z,31.25
2023-04-07T02:28:17.450Z,32.87
2023-04-07T02:28:51.370Z,30.08
2023-04-07T02:29:23.737Z,30.75
2023-04-07T02:29:56.020Z,32.38
2023-04-07T02:30:29.285Z,31.05
2023-04-07T02:31:01.817Z,31.60
2023-04-07T02:31:34.316Z,32.42
2023-04-07T02:32:06.879Z,29.20
2023-04-07T02:32:39.208Z,29.40
2023-04-07T02:33:11.960Z,32.63
2023-04-07T02:33:44.411Z,29.70
2023-04-07T02:34:17.964Z,32.47
2023-04-07T02:34:50.412Z,32.47
2023-04-07T02:35:22.995Z,31.55
2023-04-07T02:35:55.521Z,32.70
2023-04-07T02:36:28.033Z,32.65
2023-04-07T02:37:00.432Z,32.75
2023-04-07T02:37:33.032Z,30.38
2023-04-07T02:38:06.723Z,30.90
2023-04-07T02:38:41.368Z,32.65
2023-04-07T02:39:13.727Z,33.40
2023-04-07T02:39:47.087Z,31.05
2023-04-07T02:40:19.508Z,30.20
2023-04-07T02:40:51.854Z,30.75
2023-04-07T02:41:24.570Z,33.38
2023-04-07T02:41:58.217Z,32.85
2023-04-07T02:42:30.832Z,33.10
2023-04-07T02:43:03.190Z,33.30
2023-04-07T02:43:35.895Z,30.40
2023-04-07T02:44:08.180Z,32.45
2023-04-07T02:44:41.572Z,35.07
2023-04-07T02:45:15.122Z,32.20
2023-04-07T02:45:47.505Z,32.70
2023-04-07T02:46:19.875Z,33.83
2023-04-07T02:46:52.339Z,34.25
2023-04-07T02:47:25.246Z,33.28
2023-04-07T02:47:57.713Z,31.67
2023-04-07T02:48:30.208Z,31.88
2023-04-07T02:49:02.539Z,34.28
2023-04-07T02:49:34.847Z,33.40
2023-04-07T02:50:07.527Z,33.57
2023-04-07T02:50:42.186Z,31.63
2023-04-07T02:51:14.580Z,34.25
2023-04-07T02:51:48.053Z,34.15
2023-04-07T02:52:20.498Z,34.63
2023-04-07T02:52:52.837Z,34.10
2023-04-07T02:53:25.130Z,33.15
2023-04-07T02:53:57.626Z,34.28
2023-04-07T02:54:30.154Z,35.50
2023-04-07T02:55:03.433Z,32.55
2023-04-07T02:55:35.946Z,34.30
2023-04-07T02:56:08.372Z,34.45
2023-04-07T02:56:40.725Z,34.58
2023-04-07T02:57:14.264Z,32.88
2023-04-07T02:57:46.609Z,31.95
2023-04-07T02:58:51.088Z,31.17
2023-04-07T02:59:24.228Z,33.70
2023-04-07T02:59:58.278Z,30.80
2023-04-07T03:00:39.193Z,35.85
2023-04-07T03:01:15.874Z,32.08
2023-04-07T03:01:48.603Z,32.53
2023-04-07T03:02:22.068Z,34.45
2023-04-07T03:02:54.637Z,33.05
2023-04-07T03:03:27.394Z,32.50
2023-04-07T03:04:08.377Z,34.10
2023-04-07T03:04:40.708Z,35.15
2023-04-07T03:05:12.987Z,33.47
2023-04-07T03:05:45.592Z,31.50
2023-04-07T03:06:17.984Z,31.45
2023-04-07T03:07:02.173Z,33.47
2023-04-07T03:07:36.774Z,31.67
2023-04-07T03:08:13.170Z,32.55
2023-04-07T03:08:45.961Z,31.08
2023-04-07T03:09:18.252Z,29.85
2023-04-07T03:09:50.544Z,33.63
2023-04-07T03:10:24.022Z,33.45
2023-04-07T03:10:57.188Z,30.90
2023-04-07T03:11:34.004Z,30.90
2023-04-07T03:12:06.830Z,29.55
2023-04-07T03:12:41.465Z,34.28
2023-04-07T03:13:13.894Z,34.07
2023-04-07T03:13:47.146Z,32.90
2023-04-07T03:14:20.859Z,33.67
2023-04-07T03:14:55.194Z,35.08
2023-04-07T03:15:28.520Z,31.77
2023-04-07T03:16:01.200Z,33.60
2023-04-07T03:16:38.460Z,33.33
2023-04-07T03:17:16.550Z,32.40
2023-04-07T03:17:50.147Z,33.15
2023-04-07T03:18:22.680Z,33.88
2023-04-07T03:18:55.684Z,36.60
2023-04-07T03:19:28.471Z,33.17
2023-04-07T03:20:00.743Z,30.63
2023-04-07T03:20:33.093Z,31.92
2023-04-07T03:21:11.655Z,33.53
2023-04-07T03:21:43.997Z,32.08
2023-04-07T03:22:16.393Z,35.35
2023-04-07T03:22:54.226Z,34.70
2023-04-07T03:23:31.642Z,32.65
2023-04-07T03:24:06.205Z,34.03
2023-04-07T03:24:39.815Z,32.20
2023-04-07T03:25:12.562Z,32.35
2023-04-07T03:25:46.840Z,33.42
2023-04-07T03:26:20.210Z,30.80
2023-04-07T03:26:52.563Z,33.45
2023-04-07T03:27:44.048Z,31.17
2023-04-07T03:28:18.937Z,33.10
2023-04-07T03:28:52.139Z,31.50
2023-04-07T03:29:25.485Z,31.77
2023-04-07T03:29:58.729Z,31.45
2023-04-07T03:30:32.454Z,31.87
2023-04-07T03:31:05.013Z,32.15
2023-04-07T03:31:37.961Z,33.05
2023-04-07T03:32:10.291Z,33.53
2023-04-07T03:32:43.502Z,32.40
2023-04-07T03:33:16.744Z,31.23
2023-04-07T03:33:49.914Z,33.35
2023-04-07T03:34:22.292Z,32.67
2023-04-07T03:34:54.661Z,34.35
2023-04-07T03:35:27.573Z,31.63
2023-04-07T03:36:00.244Z,33.10
2023-04-07T03:36:33.292Z,32.60
2023-04-07T03:37:09.741Z,32.95
2023-04-07T03:37:43.236Z,32.38
2023-04-07T03:38:23.105Z,31.33
2023-04-07T03:39:00.594Z,35.30
2023-04-07T03:39:33.228Z,34.28
2023-04-07T03:40:07.013Z,32.03
2023-04-07T03:40:41.551Z,33.33
2023-04-07T03:41:14.048Z,32.05
2023-04-07T03:41:46.908Z,31.07
2023-04-07T03:42:19.869Z,29.02
2023-04-07T03:42:52.421Z,34.35
2023-04-07T03:43:24.740Z,33.35
2023-04-07T03:43:57.066Z,31.55
2023-04-07T03:44:29.990Z,32.35
2023-04-07T03:45:02.455Z,33.33
2023-04-07T03:45:36.336Z,32.92
2023-04-07T03:46:08.694Z,30.92
2023-04-07T03:46:41.253Z,31.85
2023-04-07T03:47:13.704Z,32.63
2023-04-07T03:47:46.620Z,32.47
2023-04-07T03:48:19.291Z,32.17
2023-04-07T03:49:02.364Z,30.80
2023-04-07T03:49:38.679Z,30.70
2023-04-07T03:50:12.064Z,31.85
2023-04-07T03:50:55.599Z,30.42
2023-04-07T03:51:28.091Z,30.20
2023-04-07T03:52:02.582Z,33.67
2023-04-07T03:52:35.212Z,31.88
2023-04-07T03:53:17.174Z,29.60
2023-04-07T03:53:51.530Z,31.60
2023-04-07T03:54:35.596Z,32.10
2023-04-07T03:55:09.518Z,29.67
2023-04-07T03:55:42.155Z,30.00
2023-04-07T03:56:22.732Z,30.88
2023-04-07T03:56:58.243Z,28.55
2023-04-07T03:57:30.649Z,30.55
2023-04-07T03:58:03.145Z,32.22
2023-04-07T03:58:38.890Z,29.20
2023-04-07T03:59:11.853Z,29.60
2023-04-07T03:59:56.331Z,30.70
2023-04-07T04:00:29.704Z,28.75
2023-04-07T04:01:11.979Z,30.40
2023-04-07T04:01:45.600Z,30.65
2023-04-07T04:02:21.409Z,29.40
2023-04-07T04:02:57.445Z,30.52
2023-04-07T04:03:29.958Z,28.80
2023-04-07T04:04:13.375Z,28.88
2023-04-07T04:04:45.939Z,30.50
2023-04-07T04:05:22.001Z,30.10
2023-04-07T04:05:54.295Z,30.10
2023-04-07T04:06:32.762Z,29.15
2023-04-07T04:07:13.462Z,28.42
2023-04-07T04:07:56.826Z,30.77
2023-04-07T04:08:29.449Z,31.35
2023-04-07T04:09:01.724Z,31.05
2023-04-07T04:09:36.490Z,30.83
2023-04-07T04:10:09.738Z,30.23
2023-04-07T04:10:46.240Z,29.85
2023-04-07T04:11:18.964Z,30.97
2023-04-07T04:12:00.354Z,29.73
2023-04-07T04:12:33.090Z,30.85
2023-04-07T04:13:11.384Z,29.63
2023-04-07T04:13:45.084Z,32.67
2023-04-07T04:14:17.741Z,32.25
2023-04-07T04:14:56.994Z,32.30
2023-04-07T04:15:29.328Z,31.00
2023-04-07T04:16:02.646Z,31.80
2023-04-07T04:16:36.051Z,31.42
2023-04-07T04:17:14.178Z,29.57
2023-04-07T04:17:50.812Z,29.70
2023-04-07T04:18:23.780Z,30.02
2023-04-07T04:18:57.472Z,32.15
2023-04-07T04:19:31.343Z,32.35
2023-04-07T04:20:07.505Z,29.27
2023-04-07T04:20:48.345Z,32.72
2023-04-07T04:21:21.267Z,28.42
2023-04-07T04:21:53.696Z,29.55
2023-04-07T04:22:27.302Z,31.65
2023-04-07T04:23:03.122Z,29.70
2023-04-07T04:23:35.547Z,29.67
2023-04-07T04:24:08.541Z,31.83
2023-04-07T04:24:42.054Z,28.17
2023-04-07T04:25:15.467Z,32.17
2023-04-07T04:25:52.829Z,28.75
2023-04-07T04:26:26.348Z,29.65
2023-04-07T04:27:02.818Z,31.83
2023-04-07T04:27:36.746Z,30.63
2023-04-07T04:28:15.206Z,30.60
2023-04-07T04:28:47.515Z,28.67
2023-04-07T04:29:21.960Z,29.88
2023-04-07T04:29:55.352Z,29.67
2023-04-07T04:30:37.210Z,29.17
2023-04-07T04:31:10.070Z,31.58
2023-04-07T04:31:46.631Z,30.42
2023-04-07T04:32:20.146Z,30.35
2023-04-07T04:32:53.848Z,28.63
2023-04-07T04:33:32.874Z,29.75
2023-04-07T04:34:05.304Z,34.60
2023-04-07T04:34:37.963Z,30.67
2023-04-07T04:35:10.572Z,29.58
2023-04-07T04:35:51.638Z,29.90
2023-04-07T04:36:26.458Z,29.15
2023-04-07T04:37:03.813Z,28.98
2023-04-07T04:37:36.961Z,30.77
2023-04-07T04:38:13.806Z,30.48
2023-04-07T04:38:51.005Z,32.15
2023-04-07T04:39:26.091Z,30.58
2023-04-07T04:39:58.991Z,30.38
2023-04-07T04:40:31.394Z,29.77
2023-04-07T04:41:04.245Z,31.05
2023-04-07T04:41:37.577Z,32.35
2023-04-07T04:42:10.838Z,31.60
2023-04-07T04:42:43.192Z,31.60
2023-04-07T04:43:17.341Z,30.65
2023-04-07T04:43:50.573Z,31.90
2023-04-07T04:44:27.670Z,32.28
2023-04-07T04:45:00.185Z,33.33
2023-04-07T04:45:33.732Z,29.77
2023-04-07T04:46:08.129Z,33.77
2023-04-07T04:46:45.629Z,32.10
2023-04-07T04:47:19.205Z,33.38
2023-04-07T04:47:51.937Z,34.03
2023-04-07T04:48:24.468Z,33.35
2023-04-07T04:48:57.038Z,34.97
2023-04-07T04:49:31.111Z,31.00
2023-04-07T04:50:07.169Z,33.80
2023-04-07T04:50:42.693Z,36.55
2023-04-07T04:51:17.627Z,35.92
2023-04-07T04:51:53.408Z,40.37
2023-04-07T04:52:25.778Z,42.83
2023-04-07T04:52:58.137Z,36.55
2023-04-07T04:53:31.146Z,36.92
2023-04-07T04:54:07.151Z,35.03
2023-04-07T04:54:39.771Z,41.42
2023-04-07T04:55:14.431Z,41.22
2023-04-07T04:55:52.294Z,42.95
2023-04-07T04:56:33.720Z,42.30
2023-04-07T04:57:06.298Z,45.92
2023-04-07T04:57:40.405Z,46.60
2023-04-07T04:58:16.655Z,42.55
2023-04-07T04:58:53.315Z,40.42
2023-04-07T04:59:45.978Z,41.85
2023-04-07T05:00:18.442Z,43.65
2023-04-07T05:01:00.150Z,44.45
2023-04-07T05:01:56.018Z,41.03
2023-04-07T05:02:28.788Z,39.90
2023-04-07T05:03:01.567Z,39.90
2023-04-07T05:03:34.307Z,38.55
2023-04-07T05:04:10.785Z,35.50
2023-04-07T05:04:49.210Z,38.22
2023-04-07T05:05:27.180Z,38.08
2023-04-07T05:06:00.961Z,37.72
2023-04-07T05:06:33.737Z,35.70
2023-04-07T05:07:12.074Z,35.95
2023-04-07T05:07:44.454Z,39.08
2023-04-07T05:08:19.250Z,41.13
2023-04-07T05:08:51.735Z,39.40
2023-04-07T05:09:27.738Z,35.38
2023-04-07T05:10:00.540Z,34.23
2023-04-07T05:10:33.030Z,35.95
2023-04-07T05:11:05.579Z,32.88
2023-04-07T05:11:41.266Z,34.40
2023-04-07T05:12:13.902Z,33.85
2023-04-07T05:12:51.752Z,33.83
2023-04-07T05:13:25.969Z,32.05
2023-04-07T05:13:58.960Z,31.80
2023-04-07T05:14:31.358Z,30.25
2023-04-07T05:15:10.513Z,30.83
2023-04-07T05:15:43.676Z,28.97
2023-04-07T05:16:18.563Z,30.50
2023-04-07T05:16:51.730Z,30.40
2023-04-07T05:17:28.254Z,29.50
2023-04-07T05:18:01.324Z,30.58
2023-04-07T05:18:34.425Z,30.10
2023-04-07T05:19:07.998Z,28.15
2023-04-07T05:19:41.283Z,26.38
2023-04-07T05:20:20.644Z,25.50
2023-04-07T05:20:53.083Z,27.25
2023-04-07T05:21:27.286Z,26.10
2023-04-07T05:22:02.889Z,28.13
2023-04-07T05:22:39.345Z,26.95
2023-04-07T05:23:15.294Z,26.00
2023-04-07T05:23:48.688Z,25.17
2023-04-07T05:24:21.585Z,26.33
2023-04-07T05:24:59.293Z,25.83
2023-04-07T05:25:31.603Z,25.88
2023-04-07T05:26:06.830Z,27.77
2023-04-07T05:26:39.125Z,24.50
2023-04-07T05:27:11.883Z,25.27
2023-04-07T05:27:44.619Z,25.17
2023-04-07T05:28:20.759Z,26.98
2023-04-07T05:28:54.203Z,26.00
2023-04-07T05:29:29.505Z,28.48
2023-04-07T05:30:01.814Z,26.20
2023-04-07T05:30:38.221Z,26.50
2023-04-07T05:31:10.893Z,24.55
2023-04-07T05:31:43.390Z,24.42
2023-04-07T05:32:19.337Z,23.17
2023-04-07T05:32:53.162Z,23.83
2023-04-07T05:33:38.994Z,24.38
2023-04-07T05:34:11.668Z,26.80
2023-04-07T05:34:50.831Z,26.73
2023-04-07T05:35:24.461Z,22.83
2023-04-07T05:36:01.167Z,25.00
2023-04-07T05:36:33.942Z,25.83
2023-04-07T05:37:06.589Z,27.08
2023-04-07T05:37:39.448Z,22.13
2023-04-07T05:38:17.081Z,22.15
2023-04-07T05:38:50.234Z,25.13
2023-04-07T05:39:24.100Z,23.27
2023-04-07T05:39:59.892Z,26.10
2023-04-07T05:40:32.568Z,23.65
2023-04-07T05:41:09.364Z,26.52
2023-04-07T05:41:42.522Z,27.35
2023-04-07T05:42:16.105Z,27.55
2023-04-07T05:42:51.345Z,28.38
2023-04-07T05:43:23.775Z,29.77
2023-04-07T05:43:56.281Z,24.92
2023-04-07T05:44:28.733Z,31.73
2023-04-07T05:45:01.717Z,29.60
2023-04-07T05:45:34.550Z,35.45
2023-04-07T05:46:07.012Z,33.25
2023-04-07T05:46:43.795Z,27.50
2023-04-07T05:47:16.531Z,35.08
2023-04-07T05:47:51.627Z,29.30
2023-04-07T05:48:30.964Z,29.60
2023-04-07T05:49:18.373Z,29.42
2023-04-07T05:49:55.956Z,28.85
2023-04-07T05:50:28.477Z,28.23
2023-04-07T05:51:02.435Z,28.73
2023-04-07T05:51:34.861Z,25.90
2023-04-07T05:52:15.180Z,24.33
2023-04-07T05:52:52.196Z,21.00
2023-04-07T05:53:28.619Z,25.38
2023-04-07T05:54:03.123Z,26.08
2023-04-07T05:54:35.464Z,25.33
2023-04-07T05:55:09.899Z,24.17
2023-04-07T05:55:45.314Z,24.13
2023-04-07T05:56:29.961Z,26.97
2023-04-07T05:57:02.536Z,27.83
2023-04-07T05:57:36.371Z,28.85
2023-04-07T05:58:09.588Z,27.63
2023-04-07T05:58:41.995Z,27.30
2023-04-07T05:59:16.061Z,28.58
2023-04-07T05:59:48.660Z,24.90
2023-04-07T06:00:21.239Z,25.27
2023-04-07T06:01:04.010Z,25.92
2023-04-07T06:01:36.438Z,25.58
2023-04-07T06:02:09.399Z,24.73
2023-04-07T06:02:42.601Z,27.45
2023-04-07T06:03:20.672Z,25.38
2023-04-07T06:04:17.351Z,25.95
2023-04-07T06:04:51.353Z,25.00
2023-04-07T06:05:26.531Z,28.17
2023-04-07T06:06:02.235Z,24.15
2023-04-07T06:06:34.909Z,26.35
2023-04-07T06:07:07.838Z,24.52
2023-04-07T06:07:40.202Z,24.88
2023-04-07T06:08:14.196Z,26.73
2023-04-07T06:08:46.956Z,24.90
2023-04-07T06:09:19.475Z,26.55
2023-04-07T06:09:53.383Z,25.55
2023-04-07T06:10:26.042Z,24.63
2023-04-07T06:10:58.430Z,24.98
2023-04-07T06:11:30.902Z,25.13
2023-04-07T06:12:07.017Z,24.42
2023-04-07T06:12:39.541Z,23.02
2023-04-07T06:13:12.327Z,25.58
2023-04-07T06:13:44.668Z,24.33
2023-04-07T06:14:17.692Z,22.50
2023-04-07T06:14:53.914Z,23.92
2023-04-07T06:15:27.323Z,24.40
2023-04-07T06:15:59.740Z,25.98
2023-04-07T06:16:32.161Z,24.10
2023-04-07T06:17:04.612Z,20.30
2023-04-07T06:17:37.269Z,22.48
2023-04-07T06:18:09.850Z,20.88
2023-04-07T06:18:42.397Z,25.42
2023-04-07T06:19:14.698Z,26.10
2023-04-07T06:19:47.173Z,23.33
2023-04-07T06:20:21.935Z,23.77
2023-04-07T06:20:54.226Z,22.98
2023-04-07T06:21:27.613Z,23.48
2023-04-07T06:22:00.163Z,23.02
2023-04-07T06:22:32.467Z,23.27
2023-04-07T06:23:06.922Z,27.50
2023-04-07T06:23:39.538Z,24.65
2023-04-07T06:24:12.729Z,24.80
2023-04-07T06:24:45.126Z,24.83
2023-04-07T06:25:17.518Z,24.45
2023-04-07T06:25:53.435Z,22.13
2023-04-07T06:26:25.830Z,24.70
2023-04-07T06:26:58.620Z,24.65
2023-04-07T06:27:30.993Z,23.48
2023-04-07T06:28:04.338Z,22.40
2023-04-07T06:28:36.671Z,22.38
2023-04-07T06:29:09.329Z,23.80
2023-04-07T06:29:41.946Z,22.20
2023-04-07T06:30:15.624Z,24.40
2023-04-07T06:30:48.212Z,26.30
2023-04-07T06:31:21.666Z,26.15
2023-04-07T06:31:53.996Z,25.17
2023-04-07T06:32:26.836Z,26.25
2023-04-07T06:32:59.704Z,23.80
2023-04-07T06:33:32.164Z,24.85
2023-04-07T06:34:04.853Z,23.83
2023-04-07T06:34:37.065Z,23.50
2023-04-07T06:35:09.523Z,25.92
2023-04-07T06:35:42.040Z,24.27
2023-04-07T06:36:14.392Z,23.83
2023-04-07T06:36:46.814Z,23.70
2023-04-07T06:37:19.437Z,23.80
2023-04-07T06:37:51.748Z,24.98
2023-04-07T06:38:24.233Z,24.30
2023-04-07T06:38:56.729Z,21.92
2023-04-07T06:39:30.260Z,23.58
2023-04-07T06:40:02.623Z,22.80
2023-04-07T06:40:34.978Z,23.38
2023-04-07T06:41:09.090Z,21.63
2023-04-07T06:41:43.465Z,22.25
2023-04-07T06:42:15.763Z,22.17
2023-04-07T06:42:56.693Z,22.77
2023-04-07T06:43:44.327Z,24.55
2023-04-07T06:44:16.604Z,21.00
2023-04-07T06:44:49.022Z,23.17
2023-04-07T06:45:21.901Z,21.45
2023-04-07T06:45:54.488Z,24.05
2023-04-07T06:46:27.442Z,20.85
2023-04-07T06:47:01.719Z,23.03
2023-04-07T06:47:34.089Z,24.67
2023-04-07T06:48:06.713Z,23.67
2023-04-07T06:48:39.532Z,22.80
2023-04-07T06:49:12.343Z,22.08
2023-04-07T06:49:45.111Z,23.25
2023-04-07T06:50:21.011Z,24.50
2023-04-07T06:50:53.490Z,22.25
2023-04-07T06:51:27.118Z,23.63
2023-04-07T06:51:59.490Z,23.27
2023-04-07T06:52:32.076Z,21.83
2023-04-07T06:53:04.793Z,23.80
2023-04-07T06:53:38.508Z,22.27
2023-04-07T06:54:16.094Z,23.27
2023-04-07T06:54:49.596Z,23.08
2023-04-07T06:55:22.439Z,23.10
2023-04-07T06:56:07.866Z,23.83
2023-04-07T06:56:43.975Z,23.33
2023-04-07T06:57:16.807Z,22.60
2023-04-07T06:57:51.418Z,23.25
2023-04-07T06:58:23.714Z,24.40
2023-04-07T06:58:56.189Z,25.38
2023-04-07T06:59:28.614Z,23.65
2023-04-07T07:00:01.328Z,23.45
2023-04-07T07:00:33.661Z,23.65
2023-04-07T07:01:06.595Z,26.50
2023-04-07T07:01:39.473Z,28.83
2023-04-07T07:02:12.432Z,28.05
2023-04-07T07:02:45.216Z,30.23
2023-04-07T07:03:19.004Z,30.05
2023-04-07T07:04:37.897Z,30.38
2023-04-07T07:05:11.588Z,26.80
2023-04-07T07:05:44.018Z,28.73
2023-04-07T07:06:16.465Z,26.52
2023-04-07T07:06:48.828Z,26.58
2023-04-07T07:07:21.575Z,26.77
2023-04-07T07:07:54.016Z,24.00
2023-04-07T07:08:27.036Z,23.38
2023-04-07T07:09:00.009Z,23.90
2023-04-07T07:09:32.389Z,25.37
2023-04-07T07:10:04.913Z,23.77
2023-04-07T07:10:38.259Z,22.90
2023-04-07T07:11:10.650Z,22.75
2023-04-07T07:11:43.070Z,22.92
2023-04-07T07:12:15.666Z,23.40
2023-04-07T07:12:48.027Z,23.42
2023-04-07T07:13:23.618Z,23.20
2023-04-07T07:13:56.104Z,23.80
2023-04-07T07:14:28.570Z,23.05
2023-04-07T07:15:01.100Z,23.20
2023-04-07T07:15:33.568Z,23.20
2023-04-07T07:16:06.574Z,23.65
2023-04-07T07:16:39.328Z,22.92
2023-04-07T07:17:11.770Z,21.80
2023-04-07T07:17:44.584Z,23.65
2023-04-07T07:18:17.250Z,24.05
2023-04-07T07:18:50.061Z,22.77
2023-04-07T07:19:22.568Z,24.17
2023-04-07T07:19:55.072Z,22.77
2023-04-07T07:20:27.977Z,21.93
2023-04-07T07:21:00.641Z,24.23
2023-04-07T07:21:33.425Z,22.67
2023-04-07T07:22:05.930Z,23.33
2023-04-07T07:22:38.416Z,23.77
2023-04-07T07:23:58.174Z,25.30
2023-04-07T07:24:31.000Z,25.77
2023-04-07T07:25:03.685Z,24.05
2023-04-07T07:25:36.208Z,23.75